createdAt,value
2018-11-13T00:00:57.284Z,-3.04
2018-11-13T00:02:00.794Z,-2.89
2018-11-13T00:03:04.636Z,-2.73
2018-11-13T00:04:08.236Z,-2.58
2018-11-13T00:05:11.875Z,-2.42
2018-11-13T00:06:15.936Z,-2.28
2018-11-13T00:07:19.463Z,-2.13
2018-11-13T00:08:23.326Z,-1.99
2018-11-13T00:09:26.891Z,-1.84
2018-11-13T00:10:29.965Z,-1.71
2018-11-13T00:11:33.643Z,-1.57
2018-11-13T00:12:37.378Z,-1.45
2018-11-13T00:13:41.619Z,-1.30
2018-11-13T00:14:45.482Z,-1.17
2018-11-13T00:15:49.069Z,-1.06
2018-11-13T00:16:52.971Z,-0.92
2018-11-13T00:17:56.687Z,-0.79
2018-11-13T00:19:00.387Z,-0.67
2018-11-13T00:20:04.098Z,-0.56
2018-11-13T00:21:07.162Z,-0.44
2018-11-13T00:22:10.927Z,-0.32
2018-11-13T00:23:14.540Z,-0.19
2018-11-13T00:24:18.315Z,-0.07
2018-11-13T00:25:22.472Z,0.05
2018-11-13T00:26:25.557Z,0.16
2018-11-13T00:27:29.271Z,0.28
2018-11-13T00:28:33.148Z,0.39
2018-11-13T00:29:36.847Z,0.51
2018-11-13T00:30:40.148Z,0.62
2018-11-13T00:31:43.859Z,0.73
2018-11-13T00:32:47.646Z,0.84
2018-11-13T00:33:51.263Z,0.96
2018-11-13T00:34:54.929Z,1.08
2018-11-13T00:35:58.438Z,1.20
2018-11-13T00:37:02.149Z,1.31
2018-11-13T00:38:05.846Z,1.68
2018-11-13T00:39:09.780Z,1.28
2018-11-13T00:40:13.923Z,0.49
2018-11-13T00:41:17.623Z,-0.30
2018-11-13T00:42:21.318Z,-1.06
2018-11-13T00:43:24.899Z,-1.83
2018-11-13T00:44:28.558Z,-2.49
2018-11-13T00:45:32.335Z,-3.14
2018-11-13T00:46:35.926Z,-3.70
2018-11-13T00:47:39.681Z,-4.26
2018-11-13T00:48:43.466Z,-4.80
2018-11-13T00:49:46.965Z,-5.27
2018-11-13T00:50:50.746Z,-5.70
2018-11-13T00:51:54.261Z,-6.09
2018-11-13T00:52:57.975Z,-6.42
2018-11-13T00:54:01.541Z,-6.23
2018-11-13T00:55:05.611Z,-5.85
2018-11-13T00:56:09.159Z,-5.47
2018-11-13T00:57:12.927Z,-5.10
2018-11-13T00:58:16.622Z,-4.72
2018-11-13T00:59:20.310Z,-4.42
2018-11-13T01:00:23.910Z,-4.10
2018-11-13T01:01:27.804Z,-3.79
2018-11-13T01:02:31.383Z,-3.50
2018-11-13T01:03:35.098Z,-3.22
2018-11-13T01:04:38.761Z,-2.94
2018-11-13T01:05:42.330Z,-2.67
2018-11-13T01:06:46.161Z,-2.41
2018-11-13T01:07:50.708Z,-2.15
2018-11-13T01:08:54.070Z,-1.92
2018-11-13T01:09:57.992Z,-1.68
2018-11-13T01:11:01.684Z,-1.46
2018-11-13T01:12:05.471Z,-1.86
2018-11-13T01:13:08.985Z,-2.54
2018-11-13T01:14:12.731Z,-3.35
2018-11-13T01:15:18.024Z,-4.21
2018-11-13T01:16:21.983Z,-5.08
2018-11-13T01:17:25.547Z,-5.94
2018-11-13T01:18:29.371Z,-6.73
2018-11-13T01:19:32.935Z,-7.47
2018-11-13T01:20:36.737Z,-8.16
2018-11-13T01:21:40.217Z,-8.79
2018-11-13T01:22:43.660Z,-9.38
2018-11-13T01:23:47.494Z,-9.91
2018-11-13T01:24:50.985Z,-10.41
2018-11-13T01:25:54.925Z,-10.88
2018-11-13T01:26:58.579Z,-11.29
2018-11-13T01:28:02.184Z,-11.66
2018-11-13T01:30:14.390Z,-12.37
2018-11-13T01:31:17.789Z,-12.66
2018-11-13T01:32:21.312Z,-12.96
2018-11-13T01:33:25.072Z,-13.25
2018-11-13T01:34:28.589Z,-13.52
2018-11-13T01:35:32.178Z,-13.77
2018-11-13T01:36:35.937Z,-13.99
2018-11-13T01:37:39.536Z,-14.24
2018-11-13T01:38:43.236Z,-14.45
2018-11-13T01:39:46.873Z,-14.65
2018-11-13T01:40:50.874Z,-14.83
2018-11-13T01:41:54.458Z,-15.02
2018-11-13T01:42:58.320Z,-15.18
2018-11-13T01:44:01.828Z,-15.35
2018-11-13T01:45:05.678Z,-15.51
2018-11-13T01:46:09.289Z,-15.66
2018-11-13T01:47:12.812Z,-15.83
2018-11-13T01:48:16.665Z,-15.97
2018-11-13T01:49:20.234Z,-16.08
2018-11-13T01:50:23.875Z,-16.24
2018-11-13T01:51:27.436Z,-15.97
2018-11-13T01:52:31.227Z,-15.27
2018-11-13T01:53:34.976Z,-14.59
2018-11-13T01:54:38.843Z,-13.95
2018-11-13T01:55:42.415Z,-13.36
2018-11-13T01:56:46.307Z,-12.80
2018-11-13T01:57:49.918Z,-12.29
2018-11-13T01:58:53.709Z,-11.80
2018-11-13T01:59:57.404Z,-11.35
2018-11-13T02:01:00.979Z,-10.91
2018-11-13T02:02:04.623Z,-10.52
2018-11-13T02:03:08.230Z,-10.78
2018-11-13T02:04:11.372Z,-9.75
2018-11-13T02:05:14.464Z,-9.41
2018-11-13T02:06:18.153Z,-9.07
2018-11-13T02:07:21.630Z,-8.75
2018-11-13T02:08:25.299Z,-8.45
2018-11-13T02:09:28.897Z,-8.14
2018-11-13T02:10:32.475Z,-7.86
2018-11-13T02:11:36.220Z,-7.58
2018-11-13T02:12:39.888Z,-7.31
2018-11-13T02:13:43.590Z,-7.04
2018-11-13T02:14:47.168Z,-6.79
2018-11-13T02:15:50.957Z,-6.52
2018-11-13T02:16:54.659Z,-6.28
2018-11-13T02:17:58.164Z,-6.03
2018-11-13T02:19:01.861Z,-5.79
2018-11-13T02:20:05.446Z,-5.56
2018-11-13T02:21:09.818Z,-5.35
2018-11-13T02:22:13.983Z,-5.11
2018-11-13T02:23:17.593Z,-4.90
2018-11-13T02:24:21.306Z,-4.69
2018-11-13T02:25:24.735Z,-4.48
2018-11-13T02:26:28.406Z,-4.27
2018-11-13T02:27:32.195Z,-4.08
2018-11-13T02:28:36.089Z,-3.88
2018-11-13T02:29:39.707Z,-3.67
2018-11-13T02:30:43.582Z,-3.79
2018-11-13T02:31:47.503Z,-4.48
2018-11-13T02:32:51.206Z,-5.28
2018-11-13T02:33:54.685Z,-6.15
2018-11-13T02:34:58.363Z,-7.03
2018-11-13T02:36:02.055Z,-7.87
2018-11-13T02:37:05.497Z,-8.65
2018-11-13T02:38:09.163Z,-9.40
2018-11-13T02:39:12.981Z,-10.10
2018-11-13T02:40:16.846Z,-10.73
2018-11-13T02:41:20.379Z,-11.32
2018-11-13T02:42:24.135Z,-11.87
2018-11-13T02:43:27.750Z,-12.35
2018-11-13T02:44:31.623Z,-12.80
2018-11-13T02:45:35.106Z,-13.25
2018-11-13T02:46:39.111Z,-13.62
2018-11-13T02:47:42.948Z,-13.97
2018-11-13T02:48:47.529Z,-14.31
2018-11-13T02:49:51.307Z,-14.63
2018-11-13T02:50:54.876Z,-14.91
2018-11-13T02:51:58.710Z,-15.17
2018-11-13T02:53:02.223Z,-15.42
2018-11-13T02:54:06.199Z,-15.66
2018-11-13T02:55:09.879Z,-15.89
2018-11-13T02:56:13.690Z,-16.10
2018-11-13T02:57:17.262Z,-16.29
2018-11-13T02:58:21.076Z,-16.48
2018-11-13T02:59:24.659Z,-16.66
2018-11-13T03:00:28.438Z,-16.78
2018-11-13T03:01:32.030Z,-16.90
2018-11-13T03:02:35.343Z,-17.03
2018-11-13T03:03:39.032Z,-17.13
2018-11-13T03:04:42.451Z,-17.24
2018-11-13T03:05:45.923Z,-17.37
2018-11-13T03:06:49.799Z,-17.47
2018-11-13T03:07:53.302Z,-17.60
2018-11-13T03:08:56.406Z,-17.73
2018-11-13T03:10:00.444Z,-17.83
2018-11-13T03:11:04.004Z,-17.94
2018-11-13T03:12:08.572Z,-18.01
2018-11-13T03:13:12.459Z,-18.13
2018-11-13T03:14:16.032Z,-18.24
2018-11-13T03:15:20.220Z,-18.33
2018-11-13T03:16:23.782Z,-18.42
2018-11-13T03:17:27.558Z,-18.50
2018-11-13T03:18:31.169Z,-18.61
2018-11-13T03:19:35.133Z,-18.68
2018-11-13T03:20:38.610Z,-18.77
2018-11-13T03:21:42.299Z,-18.84
2018-11-13T03:22:46.452Z,-18.92
2018-11-13T03:23:50.331Z,-19.00
2018-11-13T03:24:54.050Z,-19.07
2018-11-13T03:25:57.102Z,-19.14
2018-11-13T03:27:00.926Z,-19.21
2018-11-13T03:28:04.587Z,-19.27
2018-11-13T03:29:08.297Z,-19.31
2018-11-13T03:30:11.863Z,-19.39
2018-11-13T03:31:15.589Z,-19.46
2018-11-13T03:32:19.134Z,-19.17
2018-11-13T03:33:22.545Z,-18.42
2018-11-13T03:34:26.019Z,-17.70
2018-11-13T03:35:29.500Z,-17.02
2018-11-13T03:36:33.022Z,-16.41
2018-11-13T03:37:36.836Z,-15.83
2018-11-13T03:38:40.511Z,-15.30
2018-11-13T03:39:43.889Z,-14.79
2018-11-13T03:40:47.474Z,-14.31
2018-11-13T03:41:50.989Z,-13.85
2018-11-13T03:42:54.783Z,-13.42
2018-11-13T03:43:58.478Z,-13.00
2018-11-13T03:45:02.275Z,-12.62
2018-11-13T03:46:06.377Z,-12.24
2018-11-13T03:47:10.187Z,-11.88
2018-11-13T03:48:13.794Z,-11.52
2018-11-13T03:49:17.471Z,-11.20
2018-11-13T03:50:21.972Z,-10.88
2018-11-13T03:51:25.675Z,-10.57
2018-11-13T03:52:29.645Z,-13.44
2018-11-13T03:53:33.071Z,-9.98
2018-11-13T03:54:37.877Z,-9.71
2018-11-13T03:55:41.651Z,-9.42
2018-11-13T03:56:45.165Z,-9.16
2018-11-13T03:57:49.426Z,-8.89
2018-11-13T03:58:52.947Z,-8.64
2018-11-13T03:59:56.650Z,-8.39
2018-11-13T04:01:00.221Z,-8.15
2018-11-13T04:02:04.115Z,-7.89
2018-11-13T04:03:07.532Z,-7.67
2018-11-13T04:04:14.933Z,-7.45
2018-11-13T04:05:19.220Z,-7.21
2018-11-13T04:06:22.875Z,-6.98
2018-11-13T04:07:26.988Z,-6.76
2018-11-13T04:08:30.623Z,-6.55
2018-11-13T04:09:34.262Z,-6.34
2018-11-13T04:10:37.858Z,-6.13
2018-11-13T04:11:41.687Z,-5.94
2018-11-13T04:12:45.428Z,-5.76
2018-11-13T04:13:49.149Z,-5.57
2018-11-13T04:14:52.856Z,-5.38
2018-11-13T04:15:56.639Z,-5.19
2018-11-13T04:17:00.225Z,-5.00
2018-11-13T04:18:04.011Z,-4.84
2018-11-13T04:19:07.846Z,-4.66
2018-11-13T04:20:11.739Z,-4.50
2018-11-13T04:21:15.331Z,-4.33
2018-11-13T04:22:19.112Z,-4.18
2018-11-13T04:23:22.715Z,-4.00
2018-11-13T04:24:26.611Z,-3.86
2018-11-13T04:25:30.178Z,-3.71
2018-11-13T04:26:34.088Z,-3.56
2018-11-13T04:27:37.587Z,-3.40
2018-11-13T04:28:41.451Z,-3.26
2018-11-13T04:29:44.676Z,-3.12
2018-11-13T04:30:48.318Z,-2.97
2018-11-13T04:31:52.194Z,-2.83
2018-11-13T04:32:55.835Z,-2.69
2018-11-13T04:33:59.535Z,-2.55
2018-11-13T04:35:03.039Z,-2.42
2018-11-13T04:36:06.697Z,-2.30
2018-11-13T04:37:09.770Z,-2.16
2018-11-13T04:38:13.256Z,-2.03
2018-11-13T04:39:16.681Z,-1.90
2018-11-13T04:40:21.330Z,-1.79
2018-11-13T04:41:25.097Z,-1.65
2018-11-13T04:42:28.500Z,-1.52
2018-11-13T04:43:32.465Z,-1.41
2018-11-13T04:44:36.050Z,-1.27
2018-11-13T04:45:40.058Z,-1.16
2018-11-13T04:46:43.654Z,-1.04
2018-11-13T04:47:48.181Z,-0.94
2018-11-13T04:48:51.955Z,-0.80
2018-11-13T04:49:55.649Z,-0.70
2018-11-13T04:50:59.552Z,-0.60
2018-11-13T04:52:03.134Z,-0.49
2018-11-13T04:53:06.916Z,-0.37
2018-11-13T04:54:10.535Z,-0.28
2018-11-13T04:55:14.540Z,-0.16
2018-11-13T04:56:18.131Z,-0.04
2018-11-13T04:57:21.924Z,0.05
2018-11-13T04:58:25.504Z,0.16
2018-11-13T04:59:29.279Z,0.26
2018-11-13T05:00:32.992Z,0.36
2018-11-13T05:01:36.874Z,0.47
2018-11-13T05:02:40.926Z,0.57
2018-11-13T05:03:44.598Z,0.67
2018-11-13T05:04:48.197Z,0.77
2018-11-13T05:05:52.154Z,0.82
2018-11-13T05:06:56.294Z,0.21
2018-11-13T05:08:00.049Z,-0.64
2018-11-13T05:09:04.811Z,-1.56
2018-11-13T05:10:08.636Z,-2.52
2018-11-13T05:11:12.923Z,-3.49
2018-11-13T05:12:16.865Z,-4.42
2018-11-13T05:13:20.713Z,-5.32
2018-11-13T05:14:24.217Z,-6.18
2018-11-13T05:15:28.091Z,-6.94
2018-11-13T05:16:31.696Z,-7.67
2018-11-13T05:17:35.473Z,-8.37
2018-11-13T05:18:39.300Z,-8.99
2018-11-13T05:19:43.212Z,-9.59
2018-11-13T05:20:46.815Z,-10.16
2018-11-13T05:21:51.469Z,-10.67
2018-11-13T05:22:55.209Z,-11.22
2018-11-13T05:23:58.786Z,-11.73
2018-11-13T05:25:02.680Z,-12.18
2018-11-13T05:26:06.178Z,-12.62
2018-11-13T05:27:10.151Z,-13.01
2018-11-13T05:28:13.727Z,-13.39
2018-11-13T05:29:17.510Z,-13.71
2018-11-13T05:30:22.211Z,-14.02
2018-11-13T05:31:25.777Z,-14.31
2018-11-13T05:32:29.559Z,-14.59
2018-11-13T05:33:33.494Z,-14.84
2018-11-13T05:34:37.109Z,-15.08
2018-11-13T05:35:40.631Z,-15.29
2018-11-13T05:36:44.396Z,-15.49
2018-11-13T05:37:48.334Z,-15.70
2018-11-13T05:38:52.133Z,-15.88
2018-11-13T05:39:55.699Z,-16.09
2018-11-13T05:40:59.107Z,-16.23
2018-11-13T05:42:02.579Z,-16.42
2018-11-13T05:43:06.965Z,-16.55
2018-11-13T05:44:10.938Z,-16.70
2018-11-13T05:45:15.649Z,-16.80
2018-11-13T05:46:19.483Z,-16.90
2018-11-13T05:47:22.934Z,-17.02
2018-11-13T05:48:26.700Z,-17.12
2018-11-13T05:49:31.091Z,-17.23
2018-11-13T05:50:34.783Z,-17.34
2018-11-13T05:51:38.182Z,-17.44
2018-11-13T05:52:42.267Z,-17.55
2018-11-13T05:53:45.670Z,-17.66
2018-11-13T05:54:49.259Z,-17.76
2018-11-13T05:55:52.822Z,-17.86
2018-11-13T05:56:56.722Z,-17.94
2018-11-13T05:58:00.331Z,-18.05
2018-11-13T05:59:04.221Z,-18.16
2018-11-13T06:00:07.802Z,-18.26
2018-11-13T06:01:10.866Z,-18.35
2018-11-13T06:02:14.675Z,-18.45
2018-11-13T06:03:18.282Z,-18.51
2018-11-13T06:04:22.029Z,-18.59
2018-11-13T06:05:25.473Z,-18.68
2018-11-13T06:06:28.498Z,-18.76
2018-11-13T06:07:32.061Z,-18.85
2018-11-13T06:08:35.700Z,-18.91
2018-11-13T06:09:39.219Z,-18.98
2018-11-13T06:10:42.514Z,-19.04
2018-11-13T06:11:45.575Z,-19.11
2018-11-13T06:12:49.159Z,-19.18
2018-11-13T06:13:52.998Z,-19.24
2018-11-13T06:14:56.771Z,-19.31
2018-11-13T06:16:00.477Z,-19.38
2018-11-13T06:17:03.481Z,-19.43
2018-11-13T06:18:07.257Z,-19.35
2018-11-13T06:19:10.838Z,-18.63
2018-11-13T06:20:15.534Z,-17.90
2018-11-13T06:21:19.351Z,-17.20
2018-11-13T06:22:22.414Z,-16.58
2018-11-13T06:23:25.923Z,-16.01
2018-11-13T06:24:29.679Z,-15.46
2018-11-13T06:25:33.399Z,-14.95
2018-11-13T06:26:37.204Z,-14.48
2018-11-13T06:27:41.381Z,-14.00
2018-11-13T06:28:44.964Z,-13.57
2018-11-13T06:29:48.499Z,-13.15
2018-11-13T06:30:52.272Z,-12.72
2018-11-13T06:31:55.789Z,-12.35
2018-11-13T06:32:59.641Z,-11.99
2018-11-13T06:34:03.283Z,-11.63
2018-11-13T06:35:07.265Z,-11.30
2018-11-13T06:36:11.396Z,-10.97
2018-11-13T06:37:15.099Z,-10.66
2018-11-13T06:38:19.047Z,-10.36
2018-11-13T06:39:22.730Z,-10.06
2018-11-13T06:40:26.754Z,-9.76
2018-11-13T06:41:30.353Z,-9.49
2018-11-13T06:42:33.924Z,-9.21
2018-11-13T06:43:37.544Z,-8.93
2018-11-13T06:44:41.132Z,-8.69
2018-11-13T06:45:44.807Z,-8.42
2018-11-13T06:46:48.467Z,-8.19
2018-11-13T06:47:52.499Z,-7.93
2018-11-13T06:48:56.066Z,-7.70
2018-11-13T06:49:59.889Z,-7.48
2018-11-13T06:51:03.473Z,-7.24
2018-11-13T06:52:07.351Z,-7.03
2018-11-13T06:53:10.950Z,-6.84
2018-11-13T06:54:14.864Z,-6.60
2018-11-13T06:55:27.054Z,-6.38
2018-11-13T06:56:30.739Z,-6.16
2018-11-13T06:57:35.092Z,-5.98
2018-11-13T06:58:39.034Z,-5.78
2018-11-13T06:59:42.529Z,-5.59
2018-11-13T07:00:45.982Z,-5.40
2018-11-13T07:01:49.745Z,-5.21
2018-11-13T07:02:53.230Z,-5.01
2018-11-13T07:03:56.887Z,-4.84
2018-11-13T07:05:00.788Z,-4.66
2018-11-13T07:06:04.503Z,-4.50
2018-11-13T07:07:08.203Z,-4.31
2018-11-13T07:08:12.090Z,-4.14
2018-11-13T07:09:15.562Z,-3.97
2018-11-13T07:10:20.330Z,-3.81
2018-11-13T07:11:24.298Z,-3.65
2018-11-13T07:12:27.908Z,-3.50
2018-11-13T07:13:31.600Z,-3.63
2018-11-13T07:14:35.195Z,-3.18
2018-11-13T07:15:38.680Z,-3.06
2018-11-13T07:16:42.166Z,-2.91
2018-11-13T07:17:46.716Z,-2.76
2018-11-13T07:18:50.090Z,-2.62
2018-11-13T07:19:53.933Z,-2.47
2018-11-13T07:20:57.621Z,-2.34
2018-11-13T07:22:01.427Z,-2.20
2018-11-13T07:23:05.000Z,-2.06
2018-11-13T07:24:08.482Z,-1.95
2018-11-13T07:25:12.234Z,-1.82
2018-11-13T07:26:15.806Z,-1.69
2018-11-13T07:27:19.575Z,-1.57
2018-11-13T07:28:23.207Z,-1.44
2018-11-13T07:29:27.091Z,-1.30
2018-11-13T07:30:30.833Z,-1.19
2018-11-13T07:31:34.592Z,-1.07
2018-11-13T07:32:38.271Z,-0.96
2018-11-13T07:33:42.149Z,-0.84
2018-11-13T07:34:45.826Z,-0.72
2018-11-13T07:35:49.583Z,-0.61
2018-11-13T07:36:53.822Z,-0.50
2018-11-13T07:38:00.144Z,-0.38
2018-11-13T07:39:03.971Z,-0.28
2018-11-13T07:40:07.637Z,-0.18
2018-11-13T07:41:11.222Z,-0.06
2018-11-13T07:42:15.004Z,0.04
2018-11-13T07:43:18.581Z,0.14
2018-11-13T07:44:22.366Z,0.25
2018-11-13T07:45:26.070Z,0.35
2018-11-13T07:46:30.022Z,0.47
2018-11-13T07:47:33.659Z,0.59
2018-11-13T07:48:37.346Z,0.68
2018-11-13T07:49:40.726Z,0.79
2018-11-13T07:50:44.172Z,0.90
2018-11-13T07:51:47.940Z,1.00
2018-11-13T07:52:51.535Z,1.11
2018-11-13T07:53:55.469Z,1.21
2018-11-13T07:54:59.126Z,1.31
2018-11-13T07:56:02.556Z,1.41
2018-11-13T07:57:06.840Z,1.51
2018-11-13T07:58:10.708Z,1.62
2018-11-13T07:59:14.314Z,1.73
2018-11-13T08:00:18.586Z,1.83
2018-11-13T08:01:22.122Z,1.92
2018-11-13T08:02:25.912Z,2.01
2018-11-13T08:03:29.594Z,2.12
2018-11-13T08:04:33.671Z,2.20
2018-11-13T08:05:37.203Z,2.29
2018-11-13T08:06:40.903Z,2.41
2018-11-13T08:07:44.566Z,2.49
2018-11-13T08:08:48.359Z,2.47
2018-11-13T08:09:51.962Z,1.73
2018-11-13T08:10:55.732Z,0.77
2018-11-13T08:11:59.343Z,-0.34
2018-11-13T08:13:03.204Z,-1.50
2018-11-13T08:14:06.828Z,-2.66
2018-11-13T08:15:10.962Z,-3.72
2018-11-13T08:16:14.917Z,-4.75
2018-11-13T08:17:18.495Z,-5.72
2018-11-13T08:18:21.950Z,-6.59
2018-11-13T08:19:25.399Z,-7.40
2018-11-13T08:20:28.917Z,-8.16
2018-11-13T08:21:32.078Z,-8.83
2018-11-13T08:22:35.686Z,-9.48
2018-11-13T08:23:39.485Z,-10.06
2018-11-13T08:24:43.048Z,-10.60
2018-11-13T08:25:46.899Z,-11.09
2018-11-13T08:26:50.119Z,-13.40
2018-11-13T08:27:53.741Z,-11.99
2018-11-13T08:28:57.487Z,-12.39
2018-11-13T08:30:01.013Z,-12.76
2018-11-13T08:31:04.922Z,-13.12
2018-11-13T08:32:08.036Z,-13.43
2018-11-13T08:33:11.522Z,-13.74
2018-11-13T08:34:15.369Z,-14.02
2018-11-13T08:35:18.884Z,-14.30
2018-11-13T08:36:22.896Z,-14.53
2018-11-13T08:37:26.107Z,-14.78
2018-11-13T08:38:29.637Z,-15.00
2018-11-13T08:39:33.224Z,-15.19
2018-11-13T08:40:36.295Z,-15.40
2018-11-13T08:41:39.799Z,-15.60
2018-11-13T08:42:43.389Z,-15.78
2018-11-13T08:43:47.252Z,-15.96
2018-11-13T08:44:51.279Z,-16.14
2018-11-13T08:45:54.859Z,-16.30
2018-11-13T08:46:58.667Z,-16.43
2018-11-13T08:48:02.224Z,-16.54
2018-11-13T08:49:06.156Z,-16.65
2018-11-13T08:50:09.832Z,-16.75
2018-11-13T08:51:13.244Z,-16.89
2018-11-13T08:52:16.939Z,-16.98
2018-11-13T08:53:20.387Z,-17.11
2018-11-13T08:54:24.294Z,-17.22
2018-11-13T08:55:27.984Z,-17.32
2018-11-13T08:56:31.911Z,-17.44
2018-11-13T08:57:35.847Z,-17.55
2018-11-13T08:58:39.530Z,-17.65
2018-11-13T08:59:43.125Z,-17.75
2018-11-13T09:00:47.003Z,-17.84
2018-11-13T09:01:50.481Z,-17.97
2018-11-13T09:02:54.174Z,-18.04
2018-11-13T09:03:57.934Z,-18.13
2018-11-13T09:05:01.627Z,-18.24
2018-11-13T09:06:05.269Z,-18.32
2018-11-13T09:07:08.788Z,-18.39
2018-11-13T09:08:12.519Z,-18.47
2018-11-13T09:09:16.624Z,-18.57
2018-11-13T09:10:20.754Z,-18.64
2018-11-13T09:11:24.555Z,-18.69
2018-11-13T09:12:28.193Z,-18.79
2018-11-13T09:13:32.010Z,-18.85
2018-11-13T09:14:35.506Z,-18.93
2018-11-13T09:15:38.947Z,-18.99
2018-11-13T09:16:42.711Z,-19.05
2018-11-13T09:17:46.112Z,-19.09
2018-11-13T09:18:49.647Z,-19.15
2018-11-13T09:19:53.067Z,-18.63
2018-11-13T09:20:57.299Z,-17.86
2018-11-13T09:22:01.036Z,-17.16
2018-11-13T09:23:04.743Z,-16.51
2018-11-13T09:24:08.560Z,-15.92
2018-11-13T09:25:13.868Z,-15.36
2018-11-13T09:26:17.468Z,-14.82
2018-11-13T09:27:21.068Z,-14.32
2018-11-13T09:28:24.791Z,-13.86
2018-11-13T09:29:28.363Z,-13.40
2018-11-13T09:30:32.536Z,-12.98
2018-11-13T09:31:35.992Z,-12.57
2018-11-13T09:32:39.943Z,-12.18
2018-11-13T09:33:43.492Z,-11.82
2018-11-13T09:34:47.279Z,-11.46
2018-11-13T09:35:51.004Z,-11.12
2018-11-13T09:36:54.299Z,-10.79
2018-11-13T09:37:57.891Z,-10.48
2018-11-13T09:39:01.489Z,-10.17
2018-11-13T09:40:05.197Z,-9.89
2018-11-13T09:41:08.690Z,-9.59
2018-11-13T09:42:12.566Z,-9.31
2018-11-13T09:43:16.159Z,-9.02
2018-11-13T09:44:20.058Z,-8.75
2018-11-13T09:45:23.703Z,-8.48
2018-11-13T09:46:27.618Z,-8.23
2018-11-13T09:47:31.160Z,-7.98
2018-11-13T09:48:34.962Z,-7.73
2018-11-13T09:49:38.510Z,-7.50
2018-11-13T09:50:41.989Z,-7.27
2018-11-13T09:51:45.627Z,-7.06
2018-11-13T09:52:49.969Z,-6.84
2018-11-13T09:53:53.805Z,-6.62
2018-11-13T09:54:57.719Z,-6.38
2018-11-13T09:56:01.301Z,-6.19
2018-11-13T09:57:05.087Z,-5.99
2018-11-13T09:58:08.580Z,-5.79
2018-11-13T09:59:12.126Z,-5.63
2018-11-13T10:00:17.075Z,-5.40
2018-11-13T10:01:20.854Z,-5.22
2018-11-13T10:02:24.738Z,-5.03
2018-11-13T10:03:28.562Z,-4.84
2018-11-13T10:04:32.297Z,-4.67
2018-11-13T10:05:38.510Z,-4.50
2018-11-13T10:06:41.936Z,-4.33
2018-11-13T10:07:46.327Z,-4.17
2018-11-13T10:08:49.752Z,-4.00
2018-11-13T10:09:53.563Z,-3.85
2018-11-13T10:10:57.154Z,-3.69
2018-11-13T10:12:01.026Z,-3.53
2018-11-13T10:13:04.510Z,-3.37
2018-11-13T10:14:08.275Z,-3.22
2018-11-13T10:15:12.350Z,-3.08
2018-11-13T10:16:16.064Z,-2.93
2018-11-13T10:17:19.669Z,-2.80
2018-11-13T10:18:23.633Z,-2.64
2018-11-13T10:19:27.072Z,-2.50
2018-11-13T10:20:33.494Z,-2.36
2018-11-13T10:21:37.211Z,-2.22
2018-11-13T10:22:40.806Z,-2.09
2018-11-13T10:23:44.511Z,-1.95
2018-11-13T10:24:47.981Z,-1.83
2018-11-13T10:25:51.407Z,-1.70
2018-11-13T10:26:55.271Z,-1.58
2018-11-13T10:27:58.790Z,-1.44
2018-11-13T10:29:02.567Z,-1.31
2018-11-13T10:30:06.153Z,-1.19
2018-11-13T10:31:09.928Z,-1.08
2018-11-13T10:32:13.619Z,-0.95
2018-11-13T10:33:17.528Z,-0.83
2018-11-13T10:34:21.128Z,-0.72
2018-11-13T10:35:25.891Z,-0.62
2018-11-13T10:36:29.827Z,-0.51
2018-11-13T10:37:33.354Z,-0.38
2018-11-13T10:38:37.134Z,-0.28
2018-11-13T10:39:40.722Z,-0.17
2018-11-13T10:40:44.665Z,-0.05
2018-11-13T10:41:48.286Z,0.05
2018-11-13T10:42:52.430Z,0.16
2018-11-13T10:43:55.932Z,0.28
2018-11-13T10:44:59.787Z,0.37
2018-11-13T10:46:03.287Z,0.48
2018-11-13T10:47:06.808Z,0.58
2018-11-13T10:48:10.600Z,0.67
2018-11-13T10:49:14.341Z,0.79
2018-11-13T10:50:18.398Z,0.89
2018-11-13T10:51:21.970Z,0.99
2018-11-13T10:52:25.538Z,1.09
2018-11-13T10:53:28.946Z,1.18
2018-11-13T10:54:32.521Z,1.28
2018-11-13T10:55:36.037Z,1.38
2018-11-13T10:56:39.737Z,1.07
2018-11-13T10:57:43.735Z,0.30
2018-11-13T10:58:47.318Z,-0.62
2018-11-13T10:59:51.106Z,-1.62
2018-11-13T11:01:58.235Z,-2.62
2018-11-13T11:03:12.442Z,-4.63
2018-11-13T11:04:20.804Z,-5.72
2018-11-13T11:05:27.358Z,-6.63
2018-11-13T11:06:31.171Z,-7.38
2018-11-13T11:07:35.071Z,-8.06
2018-11-13T11:08:38.728Z,-8.70
2018-11-13T11:09:42.579Z,-9.26
2018-11-13T11:10:46.271Z,-9.80
2018-11-13T11:11:50.175Z,-10.29
2018-11-13T11:12:53.908Z,-10.77
2018-11-13T11:13:57.954Z,-11.29
2018-11-13T11:15:01.498Z,-11.78
2018-11-13T11:16:05.189Z,-12.23
2018-11-13T11:17:08.757Z,-12.63
2018-11-13T11:18:12.569Z,-12.98
2018-11-13T11:19:16.187Z,-13.34
2018-11-13T11:20:20.033Z,-13.67
2018-11-13T11:21:23.714Z,-13.95
2018-11-13T11:22:27.643Z,-14.25
2018-11-13T11:23:31.256Z,-14.52
2018-11-13T11:24:35.134Z,-14.76
2018-11-13T11:25:38.791Z,-15.00
2018-11-13T11:26:42.611Z,-15.22
2018-11-13T11:27:46.320Z,-15.42
2018-11-13T11:28:50.204Z,-15.62
2018-11-13T11:29:53.838Z,-15.82
2018-11-13T11:30:57.592Z,-16.00
2018-11-13T11:32:01.239Z,-16.18
2018-11-13T11:33:04.967Z,-16.34
2018-11-13T11:34:08.427Z,-16.51
2018-11-13T11:35:11.892Z,-16.62
2018-11-13T11:36:15.755Z,-16.73
2018-11-13T11:37:18.914Z,-16.83
2018-11-13T11:38:22.561Z,-16.93
2018-11-13T11:39:26.218Z,-17.04
2018-11-13T11:40:29.993Z,-17.15
2018-11-13T11:41:33.708Z,-17.23
2018-11-13T11:42:37.278Z,-17.36
2018-11-13T11:43:41.082Z,-17.45
2018-11-13T11:44:44.648Z,-17.55
2018-11-13T11:45:48.448Z,-17.64
2018-11-13T11:46:52.134Z,-17.75
2018-11-13T11:47:55.835Z,-17.83
2018-11-13T11:48:59.424Z,-17.93
2018-11-13T11:50:02.946Z,-18.03
2018-11-13T11:51:06.751Z,-18.10
2018-11-13T11:52:10.351Z,-18.20
2018-11-13T11:53:14.027Z,-18.28
2018-11-13T11:54:17.578Z,-18.37
2018-11-13T11:55:21.506Z,-18.45
2018-11-13T11:56:25.088Z,-18.53
2018-11-13T11:57:28.871Z,-18.60
2018-11-13T11:58:32.558Z,-18.68
2018-11-13T11:59:36.502Z,-18.76
2018-11-13T12:00:40.116Z,-18.85
2018-11-13T12:01:43.852Z,-18.92
2018-11-13T12:02:47.453Z,-18.97
2018-11-13T12:03:50.853Z,-19.04
2018-11-13T12:04:54.449Z,-19.09
2018-11-13T12:05:58.146Z,-19.16
2018-11-13T12:07:02.145Z,-19.23
2018-11-13T12:08:05.728Z,-19.31
2018-11-13T12:09:09.363Z,-18.81
2018-11-13T12:10:13.844Z,-18.05
2018-11-13T12:11:17.671Z,-17.34
2018-11-13T12:12:21.551Z,-16.66
2018-11-13T12:13:25.126Z,-16.08
2018-11-13T12:14:29.233Z,-15.50
2018-11-13T12:15:32.860Z,-15.00
2018-11-13T12:16:37.069Z,-14.50
2018-11-13T12:17:40.907Z,-14.02
2018-11-13T12:18:44.395Z,-13.57
2018-11-13T12:19:47.953Z,-13.14
2018-11-13T12:20:51.720Z,-12.72
2018-11-13T12:21:55.304Z,-12.34
2018-11-13T12:22:59.082Z,-11.97
2018-11-13T12:24:02.954Z,-11.60
2018-11-13T12:25:06.573Z,-11.27
2018-11-13T12:26:10.266Z,-10.91
2018-11-13T12:27:14.242Z,-10.60
2018-11-13T12:28:17.869Z,-10.28
2018-11-13T12:29:21.674Z,-9.99
2018-11-13T12:30:25.834Z,-9.68
2018-11-13T12:31:29.638Z,-9.40
2018-11-13T12:32:33.527Z,-9.13
2018-11-13T12:33:37.016Z,-8.85
2018-11-13T12:34:40.454Z,-8.60
2018-11-13T12:35:44.117Z,-8.32
2018-11-13T12:36:47.521Z,-8.07
2018-11-13T12:37:51.715Z,-7.82
2018-11-13T12:38:55.287Z,-7.58
2018-11-13T12:39:59.098Z,-7.35
2018-11-13T12:41:02.773Z,-7.12
2018-11-13T12:42:06.481Z,-6.91
2018-11-13T12:43:10.068Z,-6.68
2018-11-13T12:44:13.847Z,-6.46
2018-11-13T12:45:17.569Z,-6.26
2018-11-13T12:46:21.473Z,-6.05
2018-11-13T12:47:25.166Z,-5.86
2018-11-13T12:48:28.947Z,-5.65
2018-11-13T12:49:32.646Z,-5.46
2018-11-13T12:50:40.781Z,-5.26
2018-11-13T12:51:48.739Z,-5.08
2018-11-13T12:52:52.310Z,-4.88
2018-11-13T12:53:56.206Z,-4.73
2018-11-13T12:54:59.829Z,-4.55
2018-11-13T12:56:03.610Z,-4.38
2018-11-13T12:57:07.447Z,-4.21
2018-11-13T12:58:11.317Z,-4.04
2018-11-13T12:59:14.914Z,-3.88
2018-11-13T13:00:20.183Z,-3.69
2018-11-13T13:01:23.808Z,-3.55
2018-11-13T13:02:27.591Z,-3.36
2018-11-13T13:03:31.310Z,-3.22
2018-11-13T13:04:35.384Z,-3.06
2018-11-13T13:05:39.024Z,-2.91
2018-11-13T13:06:42.901Z,-2.76
2018-11-13T13:07:46.404Z,-2.60
2018-11-13T13:08:50.162Z,-2.47
2018-11-13T13:09:53.610Z,-2.34
2018-11-13T13:10:57.138Z,-2.20
2018-11-13T13:12:03.593Z,-2.07
2018-11-13T13:13:07.230Z,-1.93
2018-11-13T13:14:16.357Z,-1.80
2018-11-13T13:15:20.377Z,-1.66
2018-11-13T13:16:24.051Z,-1.53
2018-11-13T13:17:27.759Z,-1.41
2018-11-13T13:18:31.418Z,-1.27
2018-11-13T13:19:35.013Z,-1.16
2018-11-13T13:20:38.807Z,-1.03
2018-11-13T13:21:42.382Z,-0.91
2018-11-13T13:22:47.038Z,-0.79
2018-11-13T13:23:50.913Z,-0.66
2018-11-13T13:24:54.518Z,-0.55
2018-11-13T13:25:58.458Z,-0.42
2018-11-13T13:27:01.929Z,-0.31
2018-11-13T13:28:05.885Z,-0.20
2018-11-13T13:29:09.685Z,-0.07
2018-11-13T13:30:14.031Z,0.03
2018-11-13T13:31:17.866Z,0.14
2018-11-13T13:32:20.921Z,0.25
2018-11-13T13:33:24.587Z,0.36
2018-11-13T13:34:28.357Z,0.47
2018-11-13T13:35:32.057Z,0.58